Hlavní strana
METAR-TAF:

METAR-TAF

Letiště :

Letiště Piešťany

Piešťany, Slovensko

zeměpisná šířka: 48-37-30N, zeměpisná délka: 017-49-43E, výška: 163 m

Aktuální stav počasí

Zpráva byla vytvořena před 38 minutami, v 21:30 UTC
Severoseverovýchodní vítr 5 kt
Teplota 16°C
Vlhkost vzduchu 88%
Tlak 1005 hPa
Viditelnost 10 km a více

METAR: LZPP 302130Z AUTO 03005KT 9999 16/14 Q1005

Čas: 00:08 (22:08 UTC)

Předpověď počasí

Zpráva byla vytvořena před 4 hodinami a 53 minutami, v 17:15 UTC
Předpověď platná od 30 v 18 UTC do 31 v 03 UTC
Jihozápadní vítr 6 kt
Viditelnost 10 km a více
Polojasno ve výšce 4500 ft
Pravděpodobnost 40% :
Dočasný
od 30 v 18 UTC do 30 v 20 UTC
Západní vítr 12 kt s nárazy do 22 kt
Oblačno až skoro zataženo ve výšce 4000 ft
Skoro jasno ve výšce 4500 ft, Cumulonimbus.
dešťové přeháňky
Změna
od 30 v 21 UTC do 30 v 23 UTC
Jihovýchodní vítr 5 kt

TAF: LZPP 301715Z 3018/3103 23006KT 9999 SCT045 PROB40 TEMPO 3018/3020 26012G22KT SHRA BKN040 FEW045CB BECMG 3021/3023 13005KT

Stav a předpovědi počasí z více než 4 000 letišť (zprávy METAR a TAF).

Červené a žluté tečky na mapě představují dostupné meteorologické stanice.

Když kurzor umístíte na tečku, zobrazí se název stanice.

Pak kliknutím zobrazíte stav a předpověď počasí.

Chcete-li změnit mapu, kliknutím na zelené tlačítko se znaménkem +mapu přiblížíte, kliknutím na zelené tlačítko se znaménkem – mapu oddálíte a kliknutím na zelené šipky přejdete na sousední mapy.


METAR-TAF: